Time;durP1;ratioP1;P1;durP2;ratioP2;P2;SDS_P1;SDS_P2;PMS_P1;PMS_P2;Temp;Humidity;BMP_temperature;BMP_pressure;BME280_temperature;BME280_humidity;BME280_pressure;Samples;Min_cycle;Max_cycle;Signal;HPM_P1;HPM_P2
2023/12/28 00:00:46;;;;;;;6.27;3.50;;;;;;;18.65;52.56;100396.53;4965089;28;20484;-71
2023/12/28 00:03:11;;;;;;;8.47;3.80;;;;;;;18.70;52.44;100410.50;4981760;28;20206;-71
2023/12/28 00:05:37;;;;;;;4.43;3.20;;;;;;;18.67;52.61;100413.31;4963351;28;20260;-71
2023/12/28 00:08:02;;;;;;;5.83;3.90;;;;;;;18.64;52.82;100412.03;4977618;28;20210;-71
2023/12/28 00:10:28;;;;;;;5.50;3.97;;;;;;;18.66;53.07;100412.47;4961700;28;20222;-71
2023/12/28 00:12:54;;;;;;;6.13;3.93;;;;;;;18.64;52.89;100409.16;4976074;28;20773;-71
2023/12/28 00:15:19;;;;;;;7.40;2.83;;;;;;;18.66;52.74;100412.47;4963359;28;20205;-71
2023/12/28 00:17:44;;;;;;;5.80;3.47;;;;;;;18.65;53.26;100422.25;4974536;28;20209;-72
2023/12/28 00:20:10;;;;;;;5.40;3.73;;;;;;;18.62;53.47;100427.91;4978627;28;20843;-71
2023/12/28 00:22:39;;;;;;;5.70;3.43;;;;;;;18.59;53.36;100426.63;4962161;28;20701;-71
2023/12/28 00:25:05;;;;;;;7.73;3.83;;;;;;;18.64;53.06;100431.22;4974403;28;20461;-72
2023/12/28 00:27:30;;;;;;;5.50;3.50;;;;;;;18.63;53.16;100429.56;4959399;28;20494;-71
2023/12/28 00:29:56;;;;;;;6.10;3.67;;;;;;;18.63;53.34;100427.53;4978806;28;20469;-71
2023/12/28 00:32:21;;;;;;;5.33;3.20;;;;;;;18.62;53.56;100437.28;4984302;28;20217;-71
2023/12/28 00:34:47;;;;;;;5.20;3.50;;;;;;;18.61;53.44;100438.50;4994581;28;20205;-71
2023/12/28 00:37:12;;;;;;;6.00;3.40;;;;;;;18.61;53.68;100431.97;4961382;28;21008;-71
2023/12/28 00:39:39;;;;;;;5.13;3.20;;;;;;;18.60;53.77;100439.72;4971381;28;20202;-72
2023/12/28 00:42:04;;;;;;;6.10;3.40;;;;;;;18.60;53.95;100438.88;4985053;28;20217;-71
2023/12/28 00:44:30;;;;;;;6.87;3.37;;;;;;;18.60;53.90;100433.16;4975202;28;20534;-72
2023/12/28 00:46:55;;;;;;;5.20;3.37;;;;;;;18.62;53.60;100445.06;4992887;28;20201;-72
2023/12/28 00:49:21;;;;;;;6.77;3.30;;;;;;;18.56;54.22;100441.69;4962138;28;20231;-72
2023/12/28 00:51:46;;;;;;;5.80;3.20;;;;;;;18.60;53.73;100444.59;4950480;28;20566;-72
2023/12/28 00:54:11;;;;;;;6.07;3.10;;;;;;;18.59;53.96;100438.06;4994278;28;20979;-72
2023/12/28 00:56:37;;;;;;;6.30;3.53;;;;;;;18.59;54.07;100440.09;4974567;28;20202;-71
2023/12/28 00:59:02;;;;;;;4.90;3.33;;;;;;;18.56;54.01;100441.69;4978098;28;20197;-72
2023/12/28 01:01:30;;;;;;;5.70;3.80;;;;;;;18.58;54.25;100459.28;4961112;28;20557;-72
2023/12/28 01:03:56;;;;;;;7.33;3.30;;;;;;;18.61;54.03;100454.84;4990944;28;20209;-72
2023/12/28 01:06:21;;;;;;;4.93;3.00;;;;;;;18.57;54.16;100449.03;4959638;28;20952;-72
2023/12/28 01:08:47;;;;;;;4.90;2.90;;;;;;;18.57;54.21;100463.34;4991703;28;20201;-72
2023/12/28 01:11:12;;;;;;;4.70;3.37;;;;;;;18.59;54.60;100466.66;4961395;28;20204;-71
2023/12/28 01:13:37;;;;;;;5.83;3.57;;;;;;;18.56;54.38;100452.31;4960439;28;20205;-72
2023/12/28 01:16:04;;;;;;;5.93;3.00;;;;;;;18.55;54.25;100450.63;4962471;28;20217;-72
2023/12/28 01:18:29;;;;;;;5.27;3.33;;;;;;;18.56;54.03;100450.25;4978307;28;20621;-72
2023/12/28 01:20:55;;;;;;;4.00;2.93;;;;;;;18.56;54.33;100452.31;4961569;28;20484;-71
2023/12/28 01:23:20;;;;;;;6.17;3.40;;;;;;;18.54;54.56;100438.38;4960381;28;20201;-71
2023/12/28 01:25:46;;;;;;;6.07;3.30;;;;;;;18.51;54.45;100444.84;4949198;28;20236;-71
2023/12/28 01:28:11;;;;;;;4.77;2.80;;;;;;;18.53;54.53;100453.88;4985296;28;20236;-71
2023/12/28 01:30:37;;;;;;;4.70;2.87;;;;;;;18.55;54.45;100444.91;5001494;28;20240;-71
2023/12/28 01:33:02;;;;;;;4.90;3.27;;;;;;;18.55;54.81;100462.06;4987609;28;20228;-71
2023/12/28 01:35:28;;;;;;;4.90;3.10;;;;;;;18.54;54.94;100466.97;4981046;28;20233;-72
2023/12/28 01:37:53;;;;;;;4.47;2.90;;;;;;;18.54;54.52;100466.97;4943414;28;20202;-71
2023/12/28 01:40:19;;;;;;;5.07;3.13;;;;;;;18.52;54.89;100472.22;4965350;28;20221;-71
2023/12/28 01:42:45;;;;;;;4.70;2.80;;;;;;;18.54;54.73;100498.41;4949558;28;20312;-71
2023/12/28 01:45:10;;;;;;;4.20;2.83;;;;;;;18.51;54.55;100487.72;4959125;28;20626;-71
2023/12/28 01:47:36;;;;;;;4.40;2.90;;;;;;;18.50;54.54;100488.94;4950464;28;20210;-71
2023/12/28 01:50:02;;;;;;;5.20;3.00;;;;;;;18.53;54.98;100493.91;4965492;28;20639;-71
2023/12/28 01:52:28;;;;;;;5.70;3.30;;;;;;;18.54;55.08;100498.41;4948296;28;20361;-71
2023/12/28 01:54:53;;;;;;;4.60;3.03;;;;;;;18.52;55.19;100500.00;4982593;28;20556;-71
2023/12/28 01:57:19;;;;;;;4.13;2.93;;;;;;;18.51;54.81;100495.50;4962123;28;20465;-71
2023/12/28 01:59:44;;;;;;;5.50;3.00;;;;;;;18.50;55.03;100500.38;4962320;28;20206;-71
2023/12/28 02:02:10;;;;;;;4.40;3.07;;;;;;;18.51;54.75;100496.31;4952049;28;20716;-71
2023/12/28 02:04:36;;;;;;;5.50;3.13;;;;;;;18.49;54.87;100504.44;4964971;28;20210;-71
2023/12/28 02:07:01;;;;;;;5.20;3.27;;;;;;;18.49;55.05;100493.00;4966155;28;20202;-71
2023/12/28 02:09:27;;;;;;;3.77;2.33;;;;;;;18.51;55.13;100501.22;4931666;28;20222;-71
2023/12/28 02:11:53;;;;;;;5.30;3.03;;;;;;;18.49;54.90;100498.72;4963353;29;20215;-71
2023/12/28 02:14:18;;;;;;;4.50;2.87;;;;;;;18.47;55.31;100495.38;4949892;28;20206;-71
2023/12/28 02:16:50;;;;;;;4.80;3.03;;;;;;;18.46;55.20;100490.88;4949296;28;20202;-71
2023/12/28 02:19:21;;;;;;;5.23;3.10;;;;;;;18.46;55.34;100492.94;4948962;28;20261;-71
2023/12/28 02:21:47;;;;;;;6.30;3.40;;;;;;;18.46;55.19;100490.88;4981966;28;20476;-71
2023/12/28 02:24:12;;;;;;;6.00;3.37;;;;;;;18.48;55.08;100491.34;4948381;28;20449;-71
2023/12/28 02:26:38;;;;;;;5.93;3.20;;;;;;;18.50;54.84;100488.09;4961595;28;20249;-71
2023/12/28 02:29:03;;;;;;;4.77;3.10;;;;;;;18.47;55.21;100481.09;4963971;28;20198;-71
2023/12/28 02:31:34;;;;;;;4.07;2.80;;;;;;;18.46;55.32;100493.75;4964289;28;20213;-71
2023/12/28 02:34:08;;;;;;;6.10;2.80;;;;;;;18.46;55.11;100488.03;4963844;28;20210;-71
2023/12/28 02:36:34;;;;;;;5.63;3.50;;;;;;;18.44;55.47;100481.88;4958480;28;20492;-71
2023/12/28 02:39:00;;;;;;;4.53;2.57;;;;;;;18.45;55.44;100480.66;4962571;28;20488;-71
2023/12/28 02:41:25;;;;;;;4.07;2.47;;;;;;;18.44;55.70;100481.88;4948225;28;20240;-71
2023/12/28 02:43:51;;;;;;;4.83;2.67;;;;;;;18.44;55.86;100484.72;4943540;28;20465;-71
2023/12/28 02:46:16;;;;;;;4.33;2.37;;;;;;;18.42;55.46;100472.81;4948059;28;20277;-71
2023/12/28 02:48:42;;;;;;;4.60;2.73;;;;;;;18.44;55.36;100473.28;4948139;28;20206;-71
2023/12/28 02:51:07;;;;;;;4.80;2.70;;;;;;;18.42;55.66;100484.25;4963021;28;20265;-71
2023/12/28 02:53:33;;;;;;;3.50;2.50;;;;;;;18.45;55.76;100488.41;4931659;29;20202;-71
2023/12/28 02:55:58;;;;;;;4.00;2.57;;;;;;;18.42;55.47;100483.44;4944040;29;20203;-71
2023/12/28 02:58:24;;;;;;;4.60;2.53;;;;;;;18.42;55.43;100483.44;4945565;28;20209;-71
2023/12/28 03:00:49;;;;;;;4.57;2.97;;;;;;;18.42;55.59;100483.44;4943019;29;20576;-71
2023/12/28 03:03:14;;;;;;;4.07;2.83;;;;;;;18.43;54.92;100488.78;4952965;29;21028;-71
2023/12/28 03:05:41;;;;;;;5.13;2.50;;;;;;;18.41;55.59;100496.09;4946968;28;20208;-71
2023/12/28 03:08:06;;;;;;;4.70;2.67;;;;;;;18.41;55.47;100491.19;4944249;28;20212;-71
2023/12/28 03:10:32;;;;;;;3.43;2.30;;;;;;;18.41;56.08;100496.91;4980635;28;20497;-71
2023/12/28 03:12:57;;;;;;;4.77;2.50;;;;;;;18.41;55.42;100491.19;4975499;28;20219;-71
2023/12/28 03:15:23;;;;;;;3.37;2.20;;;;;;;18.40;55.99;100489.53;4962823;28;20206;-71
2023/12/28 03:17:48;;;;;;;4.30;3.00;;;;;;;18.39;55.81;100493.59;4961336;28;20202;-71
2023/12/28 03:20:14;;;;;;;4.40;2.73;;;;;;;18.38;55.91;100491.94;4944566;29;20195;-71
2023/12/28 03:22:40;;;;;;;3.73;2.53;;;;;;;18.37;55.65;100478.84;4944587;29;20213;-71
2023/12/28 03:25:06;;;;;;;3.90;2.37;;;;;;;18.37;56.03;100480.88;4947432;28;20461;-71
2023/12/28 03:27:31;;;;;;;3.57;2.33;;;;;;;18.39;55.77;100478.47;4968827;28;20235;-71
2023/12/28 03:29:57;;;;;;;4.30;2.33;;;;;;;18.39;55.73;100479.31;4976099;28;20218;-71
2023/12/28 03:32:22;;;;;;;3.97;2.97;;;;;;;18.36;55.76;100482.91;4963216;28;20214;-71
2023/12/28 03:34:48;;;;;;;3.90;2.80;;;;;;;18.38;55.68;100483.38;4949716;28;20214;-71
2023/12/28 03:37:13;;;;;;;5.20;3.30;;;;;;;18.39;55.94;100479.31;4980511;28;20237;-71
2023/12/28 03:39:39;;;;;;;3.70;2.40;;;;;;;18.38;55.69;100486.22;4981586;28;20204;-71
2023/12/28 03:42:04;;;;;;;5.10;2.50;;;;;;;18.35;55.98;100478.41;4958966;28;20213;-71
2023/12/28 03:44:29;;;;;;;3.83;2.30;;;;;;;18.39;55.62;100475.59;4978337;28;20217;-71
2023/12/28 03:46:56;;;;;;;4.57;2.80;;;;;;;18.37;56.05;100473.13;4972318;28;20260;-71
2023/12/28 03:49:21;;;;;;;5.10;2.80;;;;;;;18.36;55.77;100471.47;4972346;28;20213;-71
2023/12/28 03:51:49;;;;;;;4.00;2.63;;;;;;;18.36;56.05;100471.47;4972733;28;20543;-71
2023/12/28 03:54:18;;;;;;;4.10;2.50;;;;;;;18.34;56.16;100468.19;4942159;28;20198;-71
2023/12/28 03:56:43;;;;;;;5.03;3.27;;;;;;;18.34;55.92;100468.19;4970058;28;20453;-71
2023/12/28 03:59:09;;;;;;;4.50;2.83;;;;;;;18.35;56.17;100466.97;4971322;28;20468;-72
2023/12/28 04:01:35;;;;;;;4.70;2.53;;;;;;;18.33;56.36;100463.66;4972550;28;20212;-71
2023/12/28 04:04:00;;;;;;;3.60;2.60;;;;;;;18.35;55.93;100469.81;4973651;28;20432;-71
2023/12/28 04:06:26;;;;;;;4.03;2.87;;;;;;;18.34;56.34;100465.31;4973275;28;20232;-71
2023/12/28 04:08:51;;;;;;;4.70;3.00;;;;;;;18.34;55.96;100465.31;4956895;28;20720;-71
2023/12/28 04:11:16;;;;;;;3.57;1.90;;;;;;;18.35;55.87;100468.97;4968577;28;20217;-71
2023/12/28 04:13:42;;;;;;;3.73;2.50;;;;;;;18.36;56.40;100482.91;4973436;28;20208;-72
2023/12/28 04:16:09;;;;;;;3.93;2.37;;;;;;;18.34;56.26;100485.31;4984803;28;20210;-71
2023/12/28 04:18:34;;;;;;;4.67;2.50;;;;;;;18.35;55.96;100486.13;4969968;28;20254;-71
2023/12/28 04:21:00;;;;;;;3.57;2.20;;;;;;;18.34;56.35;100496.75;4953833;28;20441;-71
2023/12/28 04:23:25;;;;;;;4.20;2.67;;;;;;;18.35;56.34;100492.69;4972640;28;20206;-71
2023/12/28 04:25:51;;;;;;;4.33;2.20;;;;;;;18.35;56.12;100503.28;4972908;28;20228;-71
2023/12/28 04:28:16;;;;;;;2.83;1.93;;;;;;;18.34;55.89;100495.91;4965196;28;20198;-71
2023/12/28 04:30:42;;;;;;;3.53;2.33;;;;;;;18.31;55.68;100488.88;4970316;28;20249;-71
2023/12/28 04:33:07;;;;;;;2.73;2.07;;;;;;;18.34;55.88;100485.31;4988588;28;20206;-71
2023/12/28 04:35:32;;;;;;;4.30;2.53;;;;;;;18.35;56.21;100483.28;4972263;28;20809;-71
2023/12/28 04:37:58;;;;;;;4.20;2.67;;;;;;;18.33;56.28;100482.84;4944908;28;20268;-71
2023/12/28 04:40:23;;;;;;;4.50;2.77;;;;;;;18.32;56.52;100475.44;4952705;28;20206;-72
2023/12/28 04:42:49;;;;;;;4.30;2.70;;;;;;;18.33;56.28;100482.84;4978181;28;20204;-71
2023/12/28 04:45:15;;;;;;;2.90;1.93;;;;;;;18.33;56.13;100489.41;4986315;28;20260;-72
2023/12/28 04:47:40;;;;;;;3.53;2.20;;;;;;;18.33;56.09;100486.53;4969544;28;20244;-71
2023/12/28 04:50:07;;;;;;;3.57;2.57;;;;;;;18.34;56.39;100482.47;4969780;28;20476;-71
2023/12/28 04:52:32;;;;;;;3.23;2.00;;;;;;;18.33;56.01;100492.25;4936093;28;20306;-71
2023/12/28 04:54:58;;;;;;;4.53;2.43;;;;;;;18.31;56.42;100496.66;4970427;28;20477;-71
2023/12/28 04:57:27;;;;;;;3.67;2.00;;;;;;;18.32;56.15;100498.31;4988291;28;20286;-71
2023/12/28 04:59:53;;;;;;;4.07;2.77;;;;;;;18.30;56.10;100507.25;4986808;28;20256;-71
2023/12/28 05:02:18;;;;;;;3.00;2.23;;;;;;;18.34;55.73;100521.63;4952878;28;20456;-72
2023/12/28 05:04:44;;;;;;;4.40;2.50;;;;;;;18.30;56.37;100512.13;4988468;28;20252;-71
2023/12/28 05:07:09;;;;;;;3.17;1.97;;;;;;;18.35;55.79;100506.97;4988776;28;20595;-72
2023/12/28 05:09:35;;;;;;;3.33;2.10;;;;;;;18.31;56.33;100503.19;4956710;28;20316;-71
2023/12/28 05:12:00;;;;;;;4.30;2.23;;;;;;;18.29;56.31;100501.91;4953647;28;21049;-72
2023/12/28 05:14:26;;;;;;;4.20;2.40;;;;;;;18.30;56.10;100504.38;4972444;28;20267;-71
2023/12/28 05:16:51;;;;;;;4.00;2.30;;;;;;;18.30;56.31;100501.53;4986736;28;20221;-72
2023/12/28 05:19:17;;;;;;;2.63;2.00;;;;;;;18.32;56.44;100502.00;4972574;28;20197;-71
2023/12/28 05:21:42;;;;;;;2.90;2.10;;;;;;;18.31;56.26;100503.19;4972541;28;20198;-71
2023/12/28 05:24:08;;;;;;;3.47;2.50;;;;;;;18.33;56.15;100505.69;4966597;28;20205;-72
2023/12/28 05:26:33;;;;;;;3.60;2.17;;;;;;;18.30;56.49;100507.25;4985178;28;20583;-71
2023/12/28 05:28:59;;;;;;;5.00;2.53;;;;;;;18.32;56.39;100515.44;4987326;28;20240;-71
2023/12/28 05:31:24;;;;;;;3.50;2.00;;;;;;;18.31;56.70;100514.59;4987879;28;20304;-71
2023/12/28 05:33:50;;;;;;;3.50;2.43;;;;;;;18.33;56.30;100509.41;4968300;28;20295;-72
2023/12/28 05:36:15;;;;;;;3.70;2.30;;;;;;;18.34;56.27;100522.47;4967671;28;20296;-71
2023/12/28 05:38:41;;;;;;;3.00;2.00;;;;;;;18.34;55.97;100522.47;4919747;28;20252;-71
2023/12/28 05:41:06;;;;;;;4.47;2.13;;;;;;;18.35;56.24;100520.44;4970519;28;20432;-71
2023/12/28 05:43:31;;;;;;;4.00;2.17;;;;;;;18.35;55.97;100514.72;4955974;28;20210;-72
2023/12/28 05:45:57;;;;;;;3.67;2.17;;;;;;;18.32;56.56;100522.00;4970963;28;20268;-71
2023/12/28 05:48:22;;;;;;;4.20;2.40;;;;;;;18.33;56.39;100517.97;4969547;28;20228;-71
2023/12/28 05:50:48;;;;;;;3.37;2.20;;;;;;;18.35;56.32;100527.00;4985086;28;20736;-71
2023/12/28 05:53:14;;;;;;;3.10;2.10;;;;;;;18.33;56.45;100523.69;4968267;28;20320;-72
2023/12/28 05:55:40;;;;;;;3.97;2.60;;;;;;;18.33;56.59;100528.56;4955391;28;20453;-71
2023/12/28 05:58:06;;;;;;;4.57;2.47;;;;;;;18.33;56.55;100537.97;4971382;28;20206;-71
2023/12/28 06:00:31;;;;;;;4.00;2.40;;;;;;;18.30;56.48;100520.69;4953092;28;20503;-71
2023/12/28 06:02:57;;;;;;;3.90;2.37;;;;;;;18.31;56.36;100528.91;4969852;28;20739;-71
2023/12/28 06:05:22;;;;;;;3.13;2.30;;;;;;;18.32;56.31;100535.47;4974083;28;20206;-71
2023/12/28 06:07:48;;;;;;;2.90;1.93;;;;;;;18.34;56.80;100541.66;4956144;28;20233;-71
2023/12/28 06:10:13;;;;;;;3.00;1.93;;;;;;;18.35;56.12;100535.56;4974694;28;20218;-72
2023/12/28 06:12:39;;;;;;;3.40;1.90;;;;;;;18.35;56.71;100527.00;4968716;28;20332;-72
2023/12/28 06:15:05;;;;;;;3.93;2.37;;;;;;;18.33;56.30;100525.72;4979735;28;20216;-71
2023/12/28 06:17:30;;;;;;;3.23;2.13;;;;;;;18.31;56.51;100530.94;4964246;28;20668;-71
2023/12/28 06:19:56;;;;;;;4.07;2.20;;;;;;;18.34;56.17;100533.91;4964056;28;20499;-71
2023/12/28 06:22:21;;;;;;;2.70;1.80;;;;;;;18.34;56.19;100539.63;4956346;28;20202;-72
2023/12/28 06:24:47;;;;;;;3.80;2.20;;;;;;;18.33;56.64;100546.56;4945088;28;20206;-71
2023/12/28 06:27:12;;;;;;;3.67;2.27;;;;;;;18.34;56.09;100548.19;4976171;28;20206;-71
2023/12/28 06:29:38;;;;;;;2.80;1.80;;;;;;;18.29;56.51;100548.47;4960809;28;20221;-71
2023/12/28 06:32:03;;;;;;;3.20;2.13;;;;;;;18.33;56.66;100546.56;4962966;28;20201;-71
2023/12/28 06:34:29;;;;;;;3.70;2.43;;;;;;;18.29;56.49;100548.47;4979518;28;20201;-71
2023/12/28 06:36:54;;;;;;;4.23;2.23;;;;;;;18.35;55.94;100564.16;4960441;28;20726;-72
2023/12/28 06:39:20;;;;;;;3.03;1.73;;;;;;;18.33;56.71;100552.28;4978158;28;20201;-71
2023/12/28 06:41:49;;;;;;;3.87;2.30;;;;;;;18.34;56.73;100555.94;4995534;28;20189;-71
2023/12/28 06:44:14;;;;;;;4.40;2.17;;;;;;;18.35;56.48;100555.56;4996156;28;20209;-71
2023/12/28 06:46:40;;;;;;;3.20;2.03;;;;;;;18.36;56.32;100557.22;4969314;28;21002;-71
2023/12/28 06:49:06;;;;;;;2.90;1.80;;;;;;;18.35;55.98;100567.00;4945266;28;20202;-72
2023/12/28 06:51:31;;;;;;;4.33;2.17;;;;;;;18.36;56.27;100571.50;4946177;28;20203;-71
2023/12/28 06:53:57;;;;;;;2.80;1.83;;;;;;;18.31;56.50;100560.34;4960246;28;20209;-71
2023/12/28 06:56:22;;;;;;;3.43;2.03;;;;;;;18.34;56.42;100561.66;4976104;28;20658;-71
2023/12/28 06:58:48;;;;;;;3.90;2.00;;;;;;;18.33;56.39;100558.00;4972139;28;20202;-71
2023/12/28 07:01:13;;;;;;;2.80;1.87;;;;;;;18.36;56.56;100559.28;4980173;28;20190;-71
2023/12/28 07:03:39;;;;;;;3.10;2.10;;;;;;;18.37;56.31;100564.59;4979882;28;20198;-71
2023/12/28 07:06:04;;;;;;;2.90;1.83;;;;;;;18.32;56.50;100562.03;4980049;28;20201;-71
2023/12/28 07:08:30;;;;;;;2.70;1.80;;;;;;;18.35;56.26;100554.72;4963668;28;20650;-71
2023/12/28 07:10:56;;;;;;;3.40;2.17;;;;;;;18.33;56.07;100558.00;4989047;28;20213;-71
2023/12/28 07:13:21;;;;;;;3.73;1.90;;;;;;;18.34;56.47;100553.91;4970774;28;20209;-71
2023/12/28 07:15:46;;;;;;;3.27;1.90;;;;;;;18.34;56.70;100561.66;4948861;28;20252;-74
2023/12/28 07:18:12;;;;;;;3.43;1.90;;;;;;;18.34;56.42;100565.34;4981885;28;20208;-74
2023/12/28 07:20:38;;;;;;;2.63;1.60;;;;;;;18.32;56.48;100566.91;4974390;28;20197;-75
2023/12/28 07:23:03;;;;;;;3.00;2.10;;;;;;;18.32;56.05;100564.03;4973517;28;20251;-75
2023/12/28 07:25:28;;;;;;;3.17;1.90;;;;;;;18.34;56.40;100582.50;4963091;28;20285;-74
2023/12/28 07:27:54;;;;;;;3.53;2.20;;;;;;;18.36;56.46;100580.09;4970325;28;20194;-74
2023/12/28 07:30:19;;;;;;;2.60;1.53;;;;;;;18.36;56.77;100582.94;4956300;28;20632;-75
2023/12/28 07:32:45;;;;;;;3.10;1.87;;;;;;;18.33;56.68;100580.84;4952213;28;20539;-74
2023/12/28 07:35:11;;;;;;;3.30;2.00;;;;;;;18.40;56.61;100588.75;4973090;28;20209;-74
2023/12/28 07:37:36;;;;;;;3.10;2.00;;;;;;;18.36;56.46;100585.00;4959066;28;20297;-74
2023/12/28 07:40:03;;;;;;;3.07;1.90;;;;;;;18.37;56.42;100593.16;4953581;28;20194;-75
2023/12/28 07:42:28;;;;;;;3.00;1.83;;;;;;;18.33;56.40;100592.28;4957298;28;20219;-74
2023/12/28 07:44:54;;;;;;;4.17;2.03;;;;;;;18.36;56.35;100585.00;4972506;28;20445;-75
2023/12/28 07:47:19;;;;;;;2.70;1.50;;;;;;;18.34;56.68;100599.66;4973669;28;20201;-74
2023/12/28 07:49:45;;;;;;;3.20;2.30;;;;;;;18.36;56.11;100590.72;4956819;28;20205;-75
2023/12/28 07:52:11;;;;;;;3.30;1.80;;;;;;;18.37;56.56;100598.88;4974004;28;20208;-74
2023/12/28 07:54:36;;;;;;;2.43;1.47;;;;;;;18.35;56.13;100589.03;4971906;28;20298;-75
2023/12/28 07:57:01;;;;;;;3.20;2.10;;;;;;;18.36;56.41;100591.53;4978136;28;20212;-74
2023/12/28 07:59:27;;;;;;;2.70;1.90;;;;;;;18.41;56.19;100587.56;4957083;28;20688;-74
2023/12/28 08:01:52;;;;;;;3.33;2.00;;;;;;;18.36;56.46;100594.38;4942783;28;20221;-74
2023/12/28 08:04:18;;;;;;;3.80;1.93;;;;;;;18.36;56.31;100593.56;4960403;28;20197;-74
2023/12/28 08:06:43;;;;;;;3.10;1.93;;;;;;;18.37;56.40;100598.09;4989494;28;20214;-74
2023/12/28 08:09:09;;;;;;;2.77;1.80;;;;;;;18.37;56.01;100593.16;4972175;28;20197;-73
2023/12/28 08:11:34;;;;;;;3.33;2.20;;;;;;;18.36;56.35;100594.38;4943263;28;20209;-74
2023/12/28 08:14:00;;;;;;;3.10;2.10;;;;;;;18.33;56.79;100589.44;4989063;28;20197;-74
2023/12/28 08:16:26;;;;;;;2.73;2.00;;;;;;;18.37;56.29;100593.16;4982360;28;20275;-74
2023/12/28 08:18:51;;;;;;;2.80;1.70;;;;;;;18.35;56.66;100598.44;4936577;28;20206;-74
2023/12/28 08:21:17;;;;;;;3.27;2.10;;;;;;;18.37;56.82;100593.16;4952359;28;20202;-74
2023/12/28 08:23:43;;;;;;;4.10;2.30;;;;;;;18.36;56.50;100588.66;4952781;28;20202;-75
2023/12/28 08:26:08;;;;;;;3.23;1.73;;;;;;;18.38;56.82;100599.72;4961951;28;20201;-70
2023/12/28 08:28:34;;;;;;;2.20;1.50;;;;;;;18.36;56.50;100600.09;4979629;28;20281;-70
2023/12/28 08:30:59;;;;;;;3.50;2.10;;;;;;;18.37;56.23;100604.59;4983262;28;20209;-70
2023/12/28 08:33:25;;;;;;;2.93;1.80;;;;;;;18.39;56.37;100605.09;4983105;28;20209;-70
2023/12/28 08:35:50;;;;;;;3.47;2.10;;;;;;;18.39;56.74;100616.50;4983546;28;20229;-70
2023/12/28 08:38:16;;;;;;;2.83;1.87;;;;;;;18.38;56.60;100612.00;4963665;28;20454;-70
2023/12/28 08:40:41;;;;;;;2.73;1.73;;;;;;;18.35;56.29;100617.63;4980910;28;20241;-70
2023/12/28 08:43:07;;;;;;;3.43;1.93;;;;;;;18.39;56.46;100613.66;4972520;28;20210;-70
2023/12/28 08:45:34;;;;;;;2.50;1.60;;;;;;;18.40;55.86;100621.03;4994440;28;20206;-70
2023/12/28 08:48:00;;;;;;;2.77;1.60;;;;;;;18.39;56.57;100618.53;4984852;28;20209;-70
2023/12/28 08:50:25;;;;;;;3.43;1.83;;;;;;;18.37;56.58;100630.34;4982495;28;20468;-71
2023/12/28 08:52:51;;;;;;;2.57;1.63;;;;;;;18.37;56.68;100626.66;5001268;28;20198;-70
2023/12/28 08:55:16;;;;;;;2.60;1.60;;;;;;;18.36;56.30;100631.53;4983308;28;20205;-70
2023/12/28 08:57:42;;;;;;;4.20;1.67;;;;;;;18.36;56.62;100634.41;4983855;28;20294;-71
2023/12/28 09:00:07;;;;;;;3.53;1.77;;;;;;;18.38;56.94;100629.16;4984663;28;20206;-71
2023/12/28 09:02:33;;;;;;;2.43;1.50;;;;;;;18.40;56.24;100632.47;4984670;28;20213;-71
2023/12/28 09:04:58;;;;;;;2.70;1.70;;;;;;;18.40;56.70;100631.63;4968842;28;20216;-70
2023/12/28 09:07:24;;;;;;;3.13;1.97;;;;;;;18.38;56.44;100623.44;5000497;28;20197;-71
2023/12/28 09:09:50;;;;;;;2.70;1.57;;;;;;;18.38;56.46;100629.16;4981142;28;20300;-70
2023/12/28 09:12:15;;;;;;;3.00;1.40;;;;;;;18.37;56.55;100624.63;4985416;28;20459;-70
2023/12/28 09:14:41;;;;;;;3.83;1.60;;;;;;;18.39;56.42;100638.53;4985256;28;20216;-70
2023/12/28 09:17:06;;;;;;;3.40;2.00;;;;;;;18.41;56.48;100639.81;4980667;28;20713;-71
2023/12/28 09:19:32;;;;;;;2.47;1.57;;;;;;;18.40;56.70;100637.34;4977567;28;20197;-70
2023/12/28 09:21:57;;;;;;;2.83;1.73;;;;;;;18.40;56.49;100634.47;4964261;28;20227;-71
2023/12/28 09:24:23;;;;;;;4.83;1.70;;;;;;;18.40;56.68;100637.34;4950852;28;20208;-71
2023/12/28 09:26:48;;;;;;;2.50;1.70;;;;;;;18.40;56.83;100638.19;4995691;28;20194;-71
2023/12/28 09:29:14;;;;;;;2.83;1.80;;;;;;;18.38;56.72;100640.59;4984459;28;20234;-71
2023/12/28 09:31:39;;;;;;;2.83;1.87;;;;;;;18.40;56.38;100646.75;4965245;28;20201;-70
2023/12/28 09:34:05;;;;;;;2.73;1.70;;;;;;;18.37;56.86;100638.91;4984719;28;20185;-70
2023/12/28 09:36:31;;;;;;;2.40;1.40;;;;;;;18.40;56.67;100643.91;4976176;28;20230;-75
2023/12/28 09:38:56;;;;;;;2.60;1.60;;;;;;;18.42;56.53;100641.47;4956566;28;20285;-75
2023/12/28 09:41:22;;;;;;;2.90;1.77;;;;;;;18.41;56.58;100639.03;4953681;28;20946;-74
2023/12/28 09:43:54;;;;;;;2.90;1.77;;;;;;;18.42;56.87;100646.38;4988575;28;20201;-74
2023/12/28 09:46:20;;;;;;;2.70;1.70;;;;;;;18.42;56.27;100630.03;4958792;28;20205;-75
2023/12/28 09:48:45;;;;;;;2.37;1.73;;;;;;;18.43;56.60;100643.16;4975875;28;20452;-74
2023/12/28 09:51:11;;;;;;;2.77;1.70;;;;;;;18.40;56.92;100632.47;4958922;28;20229;-75
2023/12/28 09:53:36;;;;;;;3.20;1.90;;;;;;;18.41;56.90;100636.97;4972848;28;20198;-75
2023/12/28 09:56:02;;;;;;;2.40;1.73;;;;;;;18.39;56.98;100630.81;4956564;28;20202;-74
2023/12/28 09:58:29;;;;;;;3.10;1.77;;;;;;;18.41;56.95;100644.72;4973359;28;21065;-74
2023/12/28 10:00:55;;;;;;;3.40;2.07;;;;;;;18.41;56.89;100639.81;4957882;28;20460;-72
2023/12/28 10:03:20;;;;;;;2.43;1.70;;;;;;;18.44;56.40;100644.81;4975610;28;20954;-74
2023/12/28 10:05:46;;;;;;;3.40;1.70;;;;;;;18.46;56.46;100641.59;4969213;28;20217;-73
2023/12/28 10:08:13;;;;;;;2.13;1.30;;;;;;;18.42;57.01;100643.53;4959812;28;20202;-75
2023/12/28 10:10:38;;;;;;;2.70;1.70;;;;;;;18.42;56.82;100641.47;4971443;28;20217;-74
2023/12/28 10:13:04;;;;;;;2.30;1.60;;;;;;;18.42;56.75;100638.63;4974877;28;20453;-74
2023/12/28 10:15:31;;;;;;;3.13;1.80;;;;;;;18.44;56.57;100638.25;4975275;28;20197;-75
2023/12/28 10:17:56;;;;;;;2.63;1.60;;;;;;;18.43;56.49;100636.59;4974274;28;20344;-73
2023/12/28 10:20:21;;;;;;;3.13;1.70;;;;;;;18.41;56.77;100636.16;4974337;28;20528;-73
2023/12/28 10:22:47;;;;;;;3.50;1.90;;;;;;;18.41;56.75;100628.41;4958801;28;20213;-73
2023/12/28 10:25:12;;;;;;;2.90;1.77;;;;;;;18.40;56.87;100632.47;4975532;28;20206;-72
2023/12/28 10:27:44;;;;;;;3.23;1.67;;;;;;;18.43;57.21;100626.00;4970906;28;20592;-74
2023/12/28 10:30:10;;;;;;;2.50;1.50;;;;;;;18.42;56.82;100627.19;4975185;28;20214;-74
2023/12/28 10:32:36;;;;;;;2.67;1.70;;;;;;;18.41;56.57;100614.09;4962947;28;20459;-74
2023/12/28 10:35:02;;;;;;;2.87;1.50;;;;;;;18.45;56.47;100614.19;4975448;28;20202;-74
2023/12/28 10:37:27;;;;;;;3.17;1.77;;;;;;;18.49;56.73;100618.78;4975374;28;20221;-74
2023/12/28 10:39:53;;;;;;;3.27;1.83;;;;;;;18.47;56.54;100614.66;4959709;28;20452;-74
2023/12/28 10:42:26;;;;;;;2.27;1.33;;;;;;;18.42;56.87;100618.63;4972162;28;20221;-75
2023/12/28 10:44:52;;;;;;;3.60;1.73;;;;;;;18.42;56.98;100612.91;4976158;28;21032;-71
2023/12/28 10:47:18;;;;;;;3.10;1.47;;;;;;;18.44;56.68;100615.38;4966753;28;20500;-71
2023/12/28 10:49:44;;;;;;;3.40;1.67;;;;;;;18.42;56.56;100612.91;4979920;28;20476;-71
2023/12/28 10:52:09;;;;;;;2.80;1.70;;;;;;;18.42;56.82;100601.47;4979114;28;20351;-71
2023/12/28 10:54:47;;;;;;;3.30;1.57;;;;;;;18.44;56.81;100612.53;4964093;28;20213;-71
2023/12/28 10:57:40;;;;;;;3.40;2.00;;;;;;;18.43;56.92;100603.13;4980986;28;20206;-70
2023/12/28 11:00:17;;;;;;;3.40;1.87;;;;;;;18.43;56.65;100597.44;4967351;28;20556;-71
2023/12/28 11:02:44;;;;;;;3.50;2.10;;;;;;;18.43;56.98;100588.84;4945517;28;20495;-71
2023/12/28 11:05:14;;;;;;;3.00;1.70;;;;;;;18.44;56.71;100598.22;4947482;28;20511;-71
2023/12/28 11:07:39;;;;;;;2.63;1.40;;;;;;;18.46;56.91;100595.84;4960963;28;20843;-71
2023/12/28 11:10:06;;;;;;;3.20;1.90;;;;;;;18.44;56.92;100599.06;4944652;28;20552;-71
2023/12/28 11:12:32;;;;;;;3.13;1.53;;;;;;;18.44;56.81;100601.09;4976963;28;20236;-70
2023/12/28 11:14:58;;;;;;;2.37;1.43;;;;;;;18.44;56.71;100601.09;4979226;28;20442;-71
2023/12/28 11:17:26;;;;;;;3.03;1.73;;;;;;;18.44;56.92;100599.06;4978719;28;20212;-71